Time;durP1;ratioP1;P1;durP2;ratioP2;P2;SDS_P1;SDS_P2;PMS_P1;PMS_P2;Temp;Humidity;BMP_temperature;BMP_pressure;BME280_temperature;BME280_humidity;BME280_pressure;Samples;Min_cycle;Max_cycle;Signal;HPM_P1;HPM_P2
2022/10/01 00:01:53;;;;;;;3.33;0.57;;;20.60;76.00;;;;;;5092017;28;20550;-70
2022/10/01 00:04:18;;;;;;;1.88;0.63;;;20.60;77.00;;;;;;5093423;28;20024;-70
2022/10/01 00:06:44;;;;;;;1.85;0.63;;;20.60;76.00;;;;;;5092159;28;20035;-70
2022/10/01 00:09:10;;;;;;;4.03;0.60;;;20.70;76.00;;;;;;5093015;28;20406;-70
2022/10/01 00:11:35;;;;;;;2.40;0.50;;;20.70;76.00;;;;;;5093352;28;20413;-70
2022/10/01 00:14:01;;;;;;;2.90;0.40;;;20.60;75.80;;;;;;5093240;28;20494;-70
2022/10/01 00:16:27;;;;;;;1.67;0.60;;;20.70;75.90;;;;;;5093480;28;20024;-70
2022/10/01 00:18:53;;;;;;;1.55;0.43;;;20.70;75.90;;;;;;5091952;28;20061;-70
2022/10/01 00:21:20;;;;;;;2.05;0.98;;;20.70;75.80;;;;;;5091903;28;20020;-70
2022/10/01 00:23:46;;;;;;;1.92;0.60;;;20.70;75.90;;;;;;5091533;28;20027;-70
2022/10/01 00:26:16;;;;;;;2.03;0.63;;;20.70;75.80;;;;;;5103457;28;20019;-70
2022/10/01 00:28:43;;;;;;;3.40;0.60;;;20.70;75.90;;;;;;5113403;28;20079;-70
2022/10/01 00:31:09;;;;;;;2.03;0.70;;;20.70;75.80;;;;;;5113237;28;20011;-70
2022/10/01 00:33:35;;;;;;;2.95;0.55;;;20.70;75.90;;;;;;5113276;28;20039;-70
2022/10/01 00:36:02;;;;;;;1.67;0.80;;;20.70;75.80;;;;;;5111881;28;20517;-70
2022/10/01 00:38:28;;;;;;;2.90;0.90;;;20.70;76.00;;;;;;5110308;28;20023;-70
2022/10/01 00:40:54;;;;;;;2.38;0.57;;;20.80;75.80;;;;;;5111576;28;20020;-70
2022/10/01 00:43:21;;;;;;;2.00;0.50;;;20.80;75.80;;;;;;5112229;28;20027;-70
2022/10/01 00:45:47;;;;;;;3.03;0.70;;;20.80;75.90;;;;;;5093877;28;20024;-70
2022/10/01 00:48:13;;;;;;;4.05;0.43;;;20.80;75.90;;;;;;5066922;28;20023;-70
2022/10/01 00:50:39;;;;;;;2.72;0.60;;;20.80;75.90;;;;;;5065566;28;20044;-70
2022/10/01 00:53:07;;;;;;;1.92;0.70;;;20.70;75.90;;;;;;5091013;28;20031;-70
2022/10/01 00:55:36;;;;;;;3.55;0.80;;;20.80;76.00;;;;;;5074717;28;20027;-70
2022/10/01 00:58:03;;;;;;;1.35;0.70;;;20.80;76.00;;;;;;5092625;28;20111;-70
2022/10/01 01:00:29;;;;;;;5.70;0.50;;;20.80;76.00;;;;;;5091342;28;20024;-70
2022/10/01 01:02:54;;;;;;;5.45;0.80;;;20.80;76.00;;;;;;5091001;28;20028;-70
2022/10/01 01:05:20;;;;;;;2.97;0.63;;;20.80;76.00;;;;;;5092495;28;20088;-70
2022/10/01 01:07:47;;;;;;;1.25;0.50;;;20.80;76.00;;;;;;5090956;28;20121;-70
2022/10/01 01:10:13;;;;;;;2.25;0.95;;;20.80;76.10;;;;;;5091343;28;20019;-70
2022/10/01 01:13:02;;;;;;;4.75;0.90;;;20.80;76.10;;;;;;5091132;28;20028;-70
2022/10/01 01:16:01;;;;;;;4.65;0.70;;;20.80;76.00;;;;;;5091193;28;20478;-70
2022/10/01 01:19:23;;;;;;;2.92;0.50;;;20.80;76.10;;;;;;5083494;28;20109;-70
2022/10/01 01:21:51;;;;;;;2.47;0.80;;;20.80;76.00;;;;;;5049753;28;20387;-70
2022/10/01 01:24:40;;;;;;;3.92;0.82;;;20.80;76.10;;;;;;5033292;28;20033;-70
2022/10/01 01:27:15;;;;;;;6.68;0.80;;;20.80;76.00;;;;;;5051974;28;20040;-70
2022/10/01 01:29:54;;;;;;;3.42;0.60;;;20.80;76.10;;;;;;5053359;28;20653;-70
2022/10/01 01:32:29;;;;;;;3.03;0.80;;;20.70;76.00;;;;;;5053669;28;20045;-70
2022/10/01 01:34:58;;;;;;;4.13;0.68;;;20.80;76.00;;;;;;5036876;28;20040;-70
2022/10/01 01:37:25;;;;;;;2.05;0.68;;;20.80;76.10;;;;;;5053430;28;20031;-70
2022/10/01 01:39:52;;;;;;;1.70;0.80;;;20.80;76.10;;;;;;5036636;28;20040;-70
2022/10/01 01:42:23;;;;;;;3.85;0.68;;;20.80;76.00;;;;;;5053179;28;20025;-70
2022/10/01 01:44:50;;;;;;;2.92;1.02;;;20.80;75.90;;;;;;5053930;28;20580;-70
2022/10/01 01:47:16;;;;;;;4.05;0.80;;;20.80;75.80;;;;;;5036579;28;20024;-70
2022/10/01 01:49:42;;;;;;;3.17;0.70;;;20.80;75.80;;;;;;5069754;28;20041;-70
2022/10/01 01:52:13;;;;;;;2.10;0.70;;;20.80;75.90;;;;;;5034829;28;20041;-70
2022/10/01 01:54:39;;;;;;;4.65;0.82;;;20.80;75.80;;;;;;5030839;28;20392;-70
2022/10/01 01:57:04;;;;;;;3.25;0.70;;;20.80;75.80;;;;;;5030589;28;20079;-70
2022/10/01 01:59:32;;;;;;;3.13;0.73;;;20.80;75.80;;;;;;5030743;28;20029;-70
2022/10/01 02:01:57;;;;;;;5.15;0.80;;;20.80;75.90;;;;;;5030531;28;20025;-69
2022/10/01 02:04:36;;;;;;;4.25;0.85;;;20.80;75.90;;;;;;5031566;28;20026;-69
2022/10/01 02:07:15;;;;;;;3.05;0.70;;;20.80;75.90;;;;;;5031765;28;20025;-69
2022/10/01 02:09:48;;;;;;;1.73;0.63;;;20.80;76.00;;;;;;5031726;28;20022;-69
2022/10/01 02:12:36;;;;;;;3.45;1.00;;;20.80;75.90;;;;;;5031535;28;20032;-69
2022/10/01 02:15:12;;;;;;;4.95;0.85;;;20.80;75.90;;;;;;5031761;28;20029;-69
2022/10/01 02:17:41;;;;;;;3.75;0.80;;;20.80;75.90;;;;;;5034016;28;20022;-68
2022/10/01 02:20:17;;;;;;;6.00;0.88;;;20.80;76.00;;;;;;5035193;28;20031;-68
2022/10/01 02:22:55;;;;;;;4.60;0.85;;;20.80;76.00;;;;;;5034022;28;20025;-68
2022/10/01 02:25:25;;;;;;;3.00;0.68;;;20.80;76.00;;;;;;5044095;28;20028;-68
2022/10/01 02:27:57;;;;;;;5.45;1.30;;;20.80;76.10;;;;;;5057526;28;20025;-68
2022/10/01 02:30:23;;;;;;;4.13;0.85;;;20.80;76.10;;;;;;5073878;28;20556;-68
2022/10/01 02:32:49;;;;;;;4.90;0.93;;;20.80;76.10;;;;;;5073822;28;20024;-68
2022/10/01 02:35:15;;;;;;;5.22;0.95;;;20.80;76.00;;;;;;5056864;28;20021;-68
2022/10/01 02:37:43;;;;;;;4.63;0.93;;;20.80;76.10;;;;;;5073717;28;20025;-68
2022/10/01 02:40:13;;;;;;;4.55;1.02;;;20.80;76.10;;;;;;5057071;28;20103;-68
2022/10/01 02:42:38;;;;;;;4.78;1.20;;;20.80;76.10;;;;;;5057494;28;20036;-68
2022/10/01 02:45:04;;;;;;;7.93;1.10;;;20.80;76.10;;;;;;5073466;28;20028;-68
2022/10/01 02:47:43;;;;;;;4.97;1.00;;;20.80;76.10;;;;;;5074414;28;20025;-68
2022/10/01 02:50:09;;;;;;;5.28;0.93;;;20.80;76.10;;;;;;5075822;28;20090;-68
2022/10/01 02:52:51;;;;;;;4.15;1.08;;;20.80;76.10;;;;;;5096005;28;20074;-68
2022/10/01 02:55:19;;;;;;;5.53;0.90;;;20.80;76.10;;;;;;5077424;28;20477;-68
2022/10/01 02:57:45;;;;;;;4.15;1.42;;;20.80;76.10;;;;;;5076739;28;20055;-68
2022/10/01 03:00:15;;;;;;;6.70;1.35;;;20.80;76.10;;;;;;5093261;28;20390;-68
2022/10/01 03:02:41;;;;;;;6.28;1.17;;;20.80;76.10;;;;;;5094394;28;20058;-68
2022/10/01 03:05:07;;;;;;;2.90;0.73;;;20.90;77.20;;;;;;5093321;28;20051;-68
2022/10/01 03:07:34;;;;;;;7.72;1.30;;;20.80;76.10;;;;;;5094412;28;20111;-68
2022/10/01 03:10:00;;;;;;;4.53;0.90;;;20.80;76.10;;;;;;5093180;28;20020;-68
2022/10/01 03:12:26;;;;;;;8.00;1.40;;;20.80;76.10;;;;;;5093231;28;20027;-68
2022/10/01 03:14:52;;;;;;;3.10;0.95;;;20.80;76.20;;;;;;5094539;28;20016;-68
2022/10/01 03:17:18;;;;;;;6.45;1.05;;;20.80;76.20;;;;;;5092742;28;20085;-68
2022/10/01 03:19:43;;;;;;;4.43;0.90;;;20.80;76.10;;;;;;5094414;28;20432;-68
2022/10/01 03:22:11;;;;;;;5.03;1.10;;;20.90;76.20;;;;;;5094215;28;20024;-68
2022/10/01 03:24:37;;;;;;;8.18;1.05;;;20.90;76.20;;;;;;5076151;28;20028;-68
2022/10/01 03:27:03;;;;;;;5.72;1.00;;;20.80;76.10;;;;;;5112760;28;20096;-68
2022/10/01 03:29:28;;;;;;;6.63;1.42;;;20.90;77.20;;;;;;5114451;28;20051;-68
2022/10/01 03:31:54;;;;;;;7.30;1.00;;;20.90;76.20;;;;;;5113026;28;20032;-68
2022/10/01 03:34:20;;;;;;;3.30;1.05;;;20.90;76.20;;;;;;5114375;28;20011;-68
2022/10/01 03:36:45;;;;;;;3.97;0.88;;;20.90;76.20;;;;;;5114392;28;20032;-68
2022/10/01 03:39:12;;;;;;;2.42;0.80;;;20.90;76.20;;;;;;5114109;28;20020;-68
2022/10/01 03:41:37;;;;;;;8.07;1.40;;;20.90;76.20;;;;;;5114257;28;20020;-68
2022/10/01 03:44:03;;;;;;;4.28;1.02;;;20.90;76.20;;;;;;5114253;28;20026;-68
2022/10/01 03:46:29;;;;;;;4.18;1.10;;;20.80;76.10;;;;;;5112706;28;20028;-68
2022/10/01 03:48:56;;;;;;;2.53;0.95;;;20.90;76.20;;;;;;5114009;28;20020;-68
2022/10/01 03:51:22;;;;;;;4.75;1.10;;;20.90;76.20;;;;;;5105007;28;20044;-68
2022/10/01 03:53:48;;;;;;;4.05;1.13;;;20.90;76.20;;;;;;5093685;28;20051;-68
2022/10/01 03:56:14;;;;;;;2.78;0.90;;;20.90;76.20;;;;;;5093741;28;20030;-68
2022/10/01 03:58:39;;;;;;;5.47;1.17;;;20.90;76.20;;;;;;5093623;28;20390;-68
2022/10/01 04:01:05;;;;;;;4.15;1.20;;;20.90;76.20;;;;;;5093132;28;20099;-68
2022/10/01 04:03:31;;;;;;;3.08;0.82;;;20.90;76.20;;;;;;5093486;28;20093;-68
2022/10/01 04:05:56;;;;;;;4.38;1.10;;;20.90;76.20;;;;;;5092177;28;20031;-68
2022/10/01 04:08:22;;;;;;;4.32;0.98;;;20.90;76.20;;;;;;5092241;28;20432;-69
2022/10/01 04:10:48;;;;;;;6.07;1.55;;;20.90;76.20;;;;;;5093734;28;20103;-68
2022/10/01 04:13:14;;;;;;;4.72;1.13;;;20.90;76.20;;;;;;5092009;28;20398;-68
2022/10/01 04:15:39;;;;;;;13.77;1.55;;;20.90;76.20;;;;;;5092865;28;20020;-68
2022/10/01 04:18:05;;;;;;;2.55;0.77;;;20.90;76.20;;;;;;5093185;28;20024;-68
2022/10/01 04:20:35;;;;;;;3.95;1.10;;;20.90;76.20;;;;;;5091963;28;20095;-68
2022/10/01 04:23:01;;;;;;;8.38;1.67;;;20.90;76.20;;;;;;5091861;28;20051;-68
2022/10/01 04:25:27;;;;;;;5.45;1.48;;;20.90;76.20;;;;;;5096963;28;20055;-68
2022/10/01 04:28:00;;;;;;;2.55;0.90;;;20.90;76.20;;;;;;5112217;28;20101;-68
2022/10/01 04:30:27;;;;;;;7.32;0.93;;;20.90;75.60;;;;;;5113153;28;20030;-68
2022/10/01 04:32:53;;;;;;;4.32;1.20;;;20.90;76.10;;;;;;5095321;28;20020;-68
2022/10/01 04:35:19;;;;;;;6.45;1.30;;;20.90;76.20;;;;;;5113129;28;20015;-68
2022/10/01 04:37:44;;;;;;;4.03;1.10;;;20.90;76.20;;;;;;5112694;28;20031;-68
2022/10/01 04:40:10;;;;;;;6.13;1.13;;;20.90;75.90;;;;;;5112949;28;20015;-68
2022/10/01 04:42:40;;;;;;;5.97;1.17;;;20.90;75.80;;;;;;5113067;28;20035;-68
2022/10/01 04:45:07;;;;;;;4.32;1.10;;;20.90;75.70;;;;;;5095021;28;20027;-68
2022/10/01 04:47:33;;;;;;;4.78;1.17;;;20.90;75.70;;;;;;5111638;28;20028;-68
2022/10/01 04:49:58;;;;;;;4.28;0.95;;;21.00;75.80;;;;;;5112958;28;20378;-68
2022/10/01 04:52:24;;;;;;;6.20;1.23;;;21.00;75.80;;;;;;5096306;28;20055;-68
2022/10/01 04:54:51;;;;;;;3.97;0.85;;;21.00;75.80;;;;;;5092774;28;20023;-68
2022/10/01 04:57:19;;;;;;;4.53;1.30;;;21.00;75.90;;;;;;5091378;28;20130;-68
2022/10/01 04:59:45;;;;;;;19.50;1.65;;;21.00;75.80;;;;;;5092305;28;20069;-68
2022/10/01 05:02:10;;;;;;;6.35;1.40;;;21.00;75.80;;;;;;5091318;28;20028;-68
2022/10/01 05:04:36;;;;;;;6.50;1.02;;;21.00;75.80;;;;;;5092741;28;20059;-68
2022/10/01 05:07:02;;;;;;;4.80;1.00;;;21.00;75.90;;;;;;5092493;28;20024;-68
2022/10/01 05:09:27;;;;;;;2.40;0.85;;;21.00;77.00;;;;;;5092284;28;20024;-68
2022/10/01 05:11:53;;;;;;;4.60;1.40;;;21.00;75.90;;;;;;5092360;28;20508;-68
2022/10/01 05:14:21;;;;;;;9.02;1.52;;;21.00;75.90;;;;;;5092215;28;20516;-68
2022/10/01 05:16:47;;;;;;;4.10;0.80;;;21.00;76.00;;;;;;5092490;28;20024;-69
2022/10/01 05:19:13;;;;;;;6.45;1.30;;;21.00;76.00;;;;;;5092192;28;20453;-68
2022/10/01 05:21:39;;;;;;;15.20;1.20;;;21.00;76.00;;;;;;5092319;28;20024;-68
2022/10/01 05:24:05;;;;;;;3.30;1.13;;;21.00;76.00;;;;;;5092375;28;20402;-68
2022/10/01 05:26:31;;;;;;;7.07;1.00;;;21.00;77.00;;;;;;5106343;28;20491;-68
2022/10/01 05:28:59;;;;;;;5.13;0.98;;;21.00;76.00;;;;;;5111302;28;20098;-68
2022/10/01 05:31:25;;;;;;;4.28;1.30;;;21.00;76.00;;;;;;5112741;28;20026;-68
2022/10/01 05:33:51;;;;;;;5.95;1.15;;;21.00;76.10;;;;;;5112503;28;20028;-68
2022/10/01 05:36:16;;;;;;;3.85;1.60;;;21.00;76.00;;;;;;5112527;28;20073;-68
2022/10/01 05:38:42;;;;;;;7.05;1.23;;;21.00;76.00;;;;;;5111253;28;20488;-68
2022/10/01 05:41:07;;;;;;;3.88;1.10;;;21.00;76.00;;;;;;5111510;28;20031;-68
2022/10/01 05:43:34;;;;;;;3.17;1.05;;;21.00;76.00;;;;;;5112286;28;20024;-68
2022/10/01 05:46:01;;;;;;;3.20;1.05;;;21.00;76.70;;;;;;5112474;28;20111;-69
2022/10/01 05:48:27;;;;;;;4.43;1.08;;;21.00;76.10;;;;;;5109989;28;20024;-68
2022/10/01 05:50:53;;;;;;;2.85;0.90;;;21.00;76.10;;;;;;5087343;28;20463;-68
2022/10/01 05:53:19;;;;;;;5.38;1.17;;;21.00;77.10;;;;;;5094667;28;20456;-68
2022/10/01 05:55:44;;;;;;;5.40;1.10;;;21.00;76.10;;;;;;5094620;28;20024;-68
2022/10/01 05:58:11;;;;;;;7.03;0.90;;;21.00;76.10;;;;;;5095859;28;20020;-68
2022/10/01 06:00:38;;;;;;;3.92;0.85;;;21.00;76.10;;;;;;5077652;28;20038;-68
2022/10/01 06:03:03;;;;;;;5.22;1.20;;;21.00;76.10;;;;;;5077777;28;20024;-68
2022/10/01 06:05:30;;;;;;;3.20;0.90;;;21.00;76.10;;;;;;5094620;28;20371;-68
2022/10/01 06:07:55;;;;;;;2.40;0.70;;;21.00;77.10;;;;;;5095757;28;20512;-68
2022/10/01 06:10:21;;;;;;;5.22;1.40;;;21.00;76.10;;;;;;5095585;28;20118;-68
2022/10/01 06:12:47;;;;;;;5.60;1.10;;;21.00;76.10;;;;;;5094405;28;20017;-68
2022/10/01 06:15:13;;;;;;;3.60;0.95;;;21.00;76.10;;;;;;5077303;28;20394;-68
2022/10/01 06:17:45;;;;;;;4.07;0.80;;;21.00;76.20;;;;;;5077317;28;20023;-68
2022/10/01 06:20:15;;;;;;;6.35;0.98;;;21.00;76.20;;;;;;5095578;28;20016;-68
2022/10/01 06:22:41;;;;;;;4.80;1.27;;;21.00;76.20;;;;;;5094133;28;20107;-69
2022/10/01 06:25:11;;;;;;;2.63;0.90;;;21.00;76.20;;;;;;5097420;28;20367;-68
2022/10/01 06:27:36;;;;;;;2.42;1.10;;;21.00;76.20;;;;;;5114460;28;20099;-68
2022/10/01 06:30:03;;;;;;;5.38;1.10;;;21.00;76.20;;;;;;5115665;28;20062;-68
2022/10/01 06:32:29;;;;;;;15.98;1.92;;;21.00;76.20;;;;;;5115352;28;20588;-68
2022/10/01 06:34:54;;;;;;;5.07;1.00;;;21.00;76.20;;;;;;5115397;28;20129;-68
2022/10/01 06:37:20;;;;;;;3.28;0.80;;;21.00;76.20;;;;;;5115437;28;20106;-68
2022/10/01 06:39:45;;;;;;;5.22;1.27;;;21.00;76.20;;;;;;5115145;28;20027;-68
2022/10/01 06:42:11;;;;;;;3.72;0.88;;;21.00;76.20;;;;;;5115491;28;20029;-68
2022/10/01 06:44:37;;;;;;;4.22;0.70;;;21.00;76.20;;;;;;5115181;28;20077;-68
2022/10/01 06:47:02;;;;;;;5.68;0.90;;;21.00;76.20;;;;;;5115315;28;20077;-68
2022/10/01 06:49:28;;;;;;;6.10;1.27;;;21.00;76.20;;;;;;5115154;28;20104;-68
2022/10/01 06:54:37;;;;;;;4.63;1.20;;;21.00;76.20;;;;;;5094474;28;20393;-68
2022/10/01 06:57:04;;;;;;;7.43;1.20;;;21.00;76.20;;;;;;5094598;28;20020;-68
2022/10/01 06:59:30;;;;;;;1.83;0.70;;;21.00;76.20;;;;;;5094665;28;20111;-68
2022/10/01 07:01:55;;;;;;;1.55;0.70;;;21.00;76.20;;;;;;5094136;28;20472;-67
2022/10/01 07:04:21;;;;;;;3.00;0.85;;;21.00;76.20;;;;;;5094709;28;20024;-68
2022/10/01 07:06:46;;;;;;;5.65;1.15;;;20.90;70.20;;;;;;5094532;28;20028;-68
2022/10/01 07:09:12;;;;;;;4.28;0.95;;;20.70;69.70;;;;;;5094341;28;20024;-68
2022/10/01 07:11:40;;;;;;;4.45;0.85;;;20.60;70.90;;;;;;5094266;28;20020;-68
2022/10/01 07:14:06;;;;;;;4.75;1.00;;;20.50;71.60;;;;;;5092807;28;20024;-68
2022/10/01 07:16:32;;;;;;;3.47;1.10;;;20.40;71.90;;;;;;5093171;28;20095;-68
2022/10/01 07:18:58;;;;;;;3.90;0.85;;;20.40;72.20;;;;;;5094245;28;20028;-68
2022/10/01 07:21:24;;;;;;;2.25;0.82;;;20.30;72.30;;;;;;5076380;28;20103;-68
2022/10/01 07:23:50;;;;;;;4.13;0.90;;;20.30;72.40;;;;;;5093938;28;20568;-68
2022/10/01 07:26:15;;;;;;;2.20;0.75;;;20.30;72.50;;;;;;5106250;28;20023;-68
2022/10/01 07:28:43;;;;;;;4.35;0.98;;;20.30;72.50;;;;;;5114452;28;20020;-68
2022/10/01 07:31:10;;;;;;;4.88;1.17;;;20.20;72.50;;;;;;5114494;28;20020;-68
2022/10/01 07:33:36;;;;;;;3.45;1.00;;;20.20;72.40;;;;;;5113066;28;20020;-69
2022/10/01 07:36:03;;;;;;;7.90;0.90;;;20.20;72.50;;;;;;5114332;28;20027;-68
2022/10/01 07:38:29;;;;;;;3.22;0.75;;;20.10;72.50;;;;;;5112574;28;20020;-72
2022/10/01 07:40:55;;;;;;;1.33;0.60;;;20.10;72.80;;;;;;5091428;28;20062;-71
2022/10/01 07:43:21;;;;;;;3.92;0.90;;;20.20;72.40;;;;;;5095255;28;20020;-71
2022/10/01 07:45:48;;;;;;;6.47;0.85;;;20.30;72.20;;;;;;5113019;28;20024;-72
2022/10/01 07:48:14;;;;;;;3.67;0.80;;;20.40;71.90;;;;;;5105822;28;20024;-71
2022/10/01 07:50:41;;;;;;;2.00;0.65;;;20.50;71.80;;;;;;5091892;28;20415;-71
2022/10/01 07:53:07;;;;;;;2.40;0.68;;;20.60;71.70;;;;;;5075552;28;20157;-72
2022/10/01 07:55:33;;;;;;;3.60;1.15;;;20.60;71.70;;;;;;5093582;28;20093;-72
2022/10/01 07:58:01;;;;;;;4.82;0.82;;;20.60;71.50;;;;;;5111701;28;20035;-72
2022/10/01 08:00:27;;;;;;;4.93;1.05;;;20.60;71.30;;;;;;5113877;28;20389;-72
2022/10/01 08:02:54;;;;;;;2.08;0.90;;;20.70;71.30;;;;;;5112700;28;20491;-72
2022/10/01 08:05:22;;;;;;;4.05;0.93;;;20.70;71.10;;;;;;5113761;28;20023;-72
2022/10/01 08:07:47;;;;;;;6.00;1.10;;;20.70;71.00;;;;;;5112109;28;20035;-72
2022/10/01 08:10:13;;;;;;;3.35;1.13;;;20.70;70.90;;;;;;5112532;28;20016;-72
2022/10/01 08:12:41;;;;;;;4.18;1.20;;;20.80;70.80;;;;;;5111824;28;20032;-72
2022/10/01 08:15:14;;;;;;;4.88;1.10;;;20.80;70.80;;;;;;5092938;28;20070;-71
2022/10/01 08:17:39;;;;;;;;;;;20.90;70.60;;;;;;5092312;28;20104;-71
2022/10/01 08:20:06;;;;;;;5.28;0.93;;;20.90;70.70;;;;;;5092260;28;19940;-72
2022/10/01 08:22:32;;;;;;;4.25;1.00;;;20.90;70.40;;;;;;5091547;28;20024;-72
2022/10/01 08:24:58;;;;;;;5.93;1.08;;;20.90;70.30;;;;;;5075075;28;20024;-72
2022/10/01 08:27:24;;;;;;;6.38;1.20;;;20.90;70.20;;;;;;5091756;28;20103;-72
2022/10/01 08:29:50;;;;;;;5.38;1.23;;;20.90;70.20;;;;;;5092920;28;20028;-72
2022/10/01 08:32:16;;;;;;;6.90;1.40;;;20.90;70.00;;;;;;5093027;28;20417;-72
2022/10/01 08:34:41;;;;;;;5.32;1.00;;;21.00;70.10;;;;;;5091640;28;20553;-72
2022/10/01 08:37:07;;;;;;;6.55;1.38;;;21.00;69.90;;;;;;5092486;28;20095;-72
2022/10/01 08:39:32;;;;;;;4.93;1.20;;;21.00;69.80;;;;;;5091419;28;20028;-71
2022/10/01 08:42:20;;;;;;;4.40;1.02;;;21.00;69.90;;;;;;5092946;28;20028;-71
2022/10/01 08:44:46;;;;;;;5.72;1.38;;;21.10;70.00;;;;;;5092727;28;20116;-71
2022/10/01 08:47:27;;;;;;;7.57;1.40;;;21.10;69.70;;;;;;5076487;28;20095;-71
2022/10/01 08:49:55;;;;;;;5.80;1.40;;;21.20;69.80;;;;;;5112617;28;20027;-69
2022/10/01 08:52:31;;;;;;;5.97;1.10;;;21.20;69.50;;;;;;5096892;28;20043;-67
2022/10/01 08:55:13;;;;;;;4.72;0.95;;;21.00;69.00;;;;;;5091502;28;20040;-67
2022/10/01 08:57:45;;;;;;;3.78;0.90;;;20.90;69.20;;;;;;5075771;28;20363;-67
2022/10/01 09:00:15;;;;;;;;;;;20.80;69.40;;;;;;5075980;28;20020;-67
2022/10/01 09:02:42;;;;;;;3.75;1.05;;;20.70;70.00;;;;;;5092195;28;19911;-67
2022/10/01 09:05:15;;;;;;;3.30;0.88;;;20.70;69.80;;;;;;5072930;28;20024;-68
2022/10/01 09:07:48;;;;;;;4.20;1.60;;;20.60;70.00;;;;;;5069666;28;20086;-67
2022/10/01 09:10:19;;;;;;;4.30;1.33;;;20.60;70.20;;;;;;5088203;28;20016;-68
2022/10/01 09:12:54;;;;;;;3.40;0.93;;;20.50;70.40;;;;;;5070674;28;20394;-68
2022/10/01 09:15:19;;;;;;;5.93;1.17;;;20.50;70.50;;;;;;5070788;28;20056;-67
2022/10/01 09:17:49;;;;;;;4.80;1.10;;;20.40;70.60;;;;;;5072146;28;20055;-67
2022/10/01 09:20:35;;;;;;;3.20;1.10;;;20.40;70.70;;;;;;5070865;28;20074;-67
2022/10/01 09:23:07;;;;;;;4.07;0.80;;;20.40;70.80;;;;;;5070888;28;20057;-67
2022/10/01 09:25:33;;;;;;;37.35;5.03;;;20.30;70.90;;;;;;5086184;28;20034;-67
2022/10/01 09:28:18;;;;;;;26.63;4.70;;;20.30;71.30;;;;;;5098350;28;20076;-68
2022/10/01 09:31:07;;;;;;;29.08;5.28;;;20.30;71.70;;;;;;5114804;28;20019;-68
2022/10/01 09:33:39;;;;;;;24.45;4.50;;;20.20;71.90;;;;;;5100436;28;20061;-67
2022/10/01 09:36:22;;;;;;;25.30;4.55;;;20.20;72.20;;;;;;5114317;28;20034;-68
2022/10/01 09:39:03;;;;;;;25.40;4.20;;;20.20;72.40;;;;;;5115181;28;20023;-67
2022/10/01 09:41:30;;;;;;;31.10;5.28;;;20.20;72.50;;;;;;5099026;28;20020;-68
2022/10/01 09:43:55;;;;;;;28.13;4.57;;;20.20;72.60;;;;;;5113952;28;20020;-68
2022/10/01 09:46:21;;;;;;;32.60;4.88;;;20.10;72.70;;;;;;5115602;28;20023;-68
2022/10/01 09:48:47;;;;;;;23.33;4.85;;;20.10;72.70;;;;;;5113993;28;20493;-68
2022/10/01 09:51:33;;;;;;;30.30;5.03;;;20.10;72.80;;;;;;5109833;28;20127;-68
2022/10/01 09:54:14;;;;;;;22.90;4.93;;;20.10;72.90;;;;;;5094619;28;20024;-68
2022/10/01 09:56:42;;;;;;;31.02;4.65;;;20.10;72.90;;;;;;5094672;28;20513;-68
2022/10/01 09:59:20;;;;;;;28.27;4.45;;;20.10;72.90;;;;;;5094630;28;20012;-68
2022/10/01 10:01:54;;;;;;;27.27;4.28;;;20.10;72.90;;;;;;5094256;28;20043;-68
2022/10/01 10:04:22;;;;;;;23.83;5.40;;;20.00;72.90;;;;;;5078195;28;20039;-68
2022/10/01 10:06:48;;;;;;;24.05;4.22;;;20.00;72.90;;;;;;5095687;28;20043;-68
2022/10/01 10:09:16;;;;;;;19.20;5.63;;;20.00;73.00;;;;;;5077537;28;20363;-68
2022/10/01 10:11:41;;;;;;;17.95;4.10;;;20.00;73.00;;;;;;5094331;28;20108;-68
2022/10/01 10:14:18;;;;;;;17.52;4.20;;;20.00;73.00;;;;;;5095376;28;20091;-68
2022/10/01 10:16:46;;;;;;;26.33;4.97;;;20.00;73.00;;;;;;5078383;28;20024;-68
2022/10/01 10:19:31;;;;;;;15.52;4.45;;;19.90;73.00;;;;;;5094114;28;20069;-68
2022/10/01 10:22:08;;;;;;;17.65;4.40;;;19.90;72.90;;;;;;5095191;28;20107;-68
2022/10/01 10:24:34;;;;;;;28.17;5.18;;;19.90;73.00;;;;;;5094158;28;20012;-68
2022/10/01 10:27:02;;;;;;;17.98;4.35;;;19.90;73.00;;;;;;5113311;28;20440;-68
2022/10/01 10:29:32;;;;;;;21.02;5.05;;;19.90;73.00;;;;;;5115778;28;20012;-68
2022/10/01 10:31:58;;;;;;;23.60;5.80;;;19.90;73.00;;;;;;5097539;28;20034;-68
2022/10/01 10:34:34;;;;;;;19.67;4.50;;;19.90;73.00;;;;;;5115476;28;20096;-68
2022/10/01 10:37:04;;;;;;;18.92;3.65;;;19.90;73.00;;;;;;5114415;28;20026;-68
2022/10/01 10:39:31;;;;;;;14.98;4.20;;;19.90;73.00;;;;;;5114205;28;20481;-67
2022/10/01 10:41:58;;;;;;;18.40;4.25;;;19.90;73.00;;;;;;5115301;27;20539;-68
2022/10/01 10:44:26;;;;;;;22.65;4.75;;;19.80;73.00;;;;;;5114459;28;20118;-68
2022/10/01 10:46:52;;;;;;;22.83;4.85;;;19.90;73.00;;;;;;5113806;28;20019;-68
2022/10/01 10:49:30;;;;;;;17.27;3.95;;;19.90;73.00;;;;;;5115074;28;20333;-68
2022/10/01 10:51:57;;;;;;;18.45;4.97;;;19.80;73.00;;;;;;5101312;28;20071;-67
2022/10/01 10:54:36;;;;;;;20.77;4.30;;;19.80;73.00;;;;;;5094853;28;20508;-67
2022/10/01 10:57:12;;;;;;;18.77;5.15;;;19.80;73.00;;;;;;5087875;28;20028;-68
2022/10/01 10:59:38;;;;;;;14.30;4.18;;;19.80;72.90;;;;;;5075241;28;20017;-68
2022/10/01 11:02:04;;;;;;;16.80;4.38;;;19.80;72.90;;;;;;5074405;28;20032;-68
2022/10/01 11:04:38;;;;;;;16.10;3.95;;;19.80;73.00;;;;;;5074849;28;20525;-68
2022/10/01 11:07:04;;;;;;;16.00;4.35;;;19.80;73.10;;;;;;5082099;28;20036;-68
2022/10/01 11:09:36;;;;;;;13.82;3.28;;;19.80;73.00;;;;;;5073224;28;20028;-68
2022/10/01 11:12:16;;;;;;;17.95;4.38;;;19.80;73.00;;;;;;5072668;28;20037;-68
2022/10/01 11:14:54;;;;;;;12.35;3.25;;;19.80;73.10;;;;;;5073099;28;20028;-67
2022/10/01 11:17:39;;;;;;;17.42;4.35;;;19.80;73.10;;;;;;5074012;28;20104;-67
2022/10/01 11:20:16;;;;;;;16.98;3.78;;;19.80;73.10;;;;;;5074061;28;20108;-67
2022/10/01 11:23:02;;;;;;;19.80;4.65;;;19.80;73.10;;;;;;5074031;28;20032;-67
2022/10/01 11:25:49;;;;;;;21.10;4.60;;;19.80;73.00;;;;;;5083471;28;20026;-68
2022/10/01 11:28:27;;;;;;;17.50;4.05;;;19.80;73.00;;;;;;5114421;28;20031;-67
2022/10/01 11:31:21;;;;;;;16.10;5.30;;;19.80;73.00;;;;;;5114160;28;20451;-68
2022/10/01 11:34:11;;;;;;;19.25;5.40;;;19.80;73.10;;;;;;5102662;28;20035;-68
2022/10/01 11:36:59;;;;;;;18.58;7.47;;;19.80;73.10;;;;;;5114105;28;20031;-67
2022/10/01 11:39:25;;;;;;;16.33;6.90;;;19.80;73.40;;;;;;5113078;28;20034;-68
2022/10/01 11:41:59;;;;;;;21.95;7.30;;;19.70;73.50;;;;;;5113019;28;20015;-67
2022/10/01 11:44:43;;;;;;;17.13;6.80;;;19.80;73.50;;;;;;5096352;28;20050;-68
2022/10/01 11:47:15;;;;;;;19.85;7.45;;;19.70;73.50;;;;;;5113793;28;20023;-68
2022/10/01 11:49:56;;;;;;;;;;;19.80;73.60;;;;;;5114436;28;20027;-68
2022/10/01 11:52:33;;;;;;;16.35;6.60;;;19.80;73.70;;;;;;5097839;28;19916;-68
2022/10/01 12:01:09;;;;;;;14.63;6.28;;;19.70;73.30;;;;;;5093721;28;20069;-68
2022/10/01 12:03:41;;;;;;;15.52;6.18;;;19.80;73.40;;;;;;5093450;28;20116;-69
2022/10/01 12:06:08;;;;;;;23.45;6.80;;;19.70;73.30;;;;;;5092331;28;20023;-68
2022/10/01 12:08:34;;;;;;;16.30;5.97;;;19.80;73.50;;;;;;5075310;28;20043;-68
2022/10/01 12:11:04;;;;;;;17.20;6.63;;;19.70;73.30;;;;;;5086166;28;20027;-68
2022/10/01 12:13:35;;;;;;;13.23;5.78;;;19.70;73.30;;;;;;5080170;28;20029;-68
2022/10/01 12:16:44;;;;;;;14.88;5.57;;;19.80;73.30;;;;;;5071684;28;20024;-68
2022/10/01 12:19:27;;;;;;;18.00;6.63;;;19.80;73.40;;;;;;5071529;28;20162;-68
2022/10/01 12:22:14;;;;;;;16.88;6.22;;;19.80;73.40;;;;;;5071600;28;20020;-68
2022/10/01 12:24:43;;;;;;;13.68;5.38;;;19.80;73.30;;;;;;5071636;28;20028;-68
2022/10/01 12:27:24;;;;;;;13.55;5.82;;;19.70;73.20;;;;;;5110441;28;20064;-68
2022/10/01 12:30:02;;;;;;;13.85;6.20;;;19.70;73.30;;;;;;5113448;28;20541;-68
2022/10/01 12:32:35;;;;;;;17.48;5.68;;;19.80;73.40;;;;;;5096475;28;20016;-71
2022/10/01 12:35:10;;;;;;;11.50;4.85;;;19.80;73.50;;;;;;5111949;28;20032;-72
2022/10/01 12:38:08;;;;;;;18.60;6.13;;;19.90;73.00;;;;;;5106783;28;20486;-70
2022/10/01 12:40:52;;;;;;;15.88;5.88;;;20.00;72.70;;;;;;5091196;28;20066;-71
2022/10/01 12:43:39;;;;;;;12.80;5.47;;;19.90;73.00;;;;;;5092300;28;20103;-69
2022/10/01 12:46:09;;;;;;;17.67;5.53;;;19.90;73.30;;;;;;5091622;28;20020;-70
2022/10/01 12:48:51;;;;;;;18.98;5.43;;;19.90;73.40;;;;;;5091223;28;20031;-69
2022/10/01 12:51:23;;;;;;;;;;;19.90;73.30;;;;;;5090103;28;20138;-70
2022/10/01 12:53:54;;;;;;;12.52;4.65;;;19.80;73.30;;;;;;5089551;28;19915;-69
2022/10/01 12:56:32;;;;;;;21.38;5.45;;;19.80;73.40;;;;;;5089500;28;20046;-69
2022/10/01 12:59:24;;;;;;;15.50;4.53;;;19.80;73.30;;;;;;5087818;28;20028;-69
2022/10/01 13:02:21;;;;;;;16.80;5.38;;;19.80;73.30;;;;;;5089444;28;20024;-69
2022/10/01 13:05:16;;;;;;;9.25;4.00;;;19.80;73.40;;;;;;5074088;28;20036;-69
2022/10/01 13:08:06;;;;;;;16.35;5.15;;;19.70;73.30;;;;;;5089537;28;20015;-69
2022/10/01 13:11:06;;;;;;;19.58;4.78;;;19.70;73.50;;;;;;5090218;28;20490;-69